createdAt,value
2018-10-19T00:00:53.146Z,0.00
2018-10-19T00:01:53.409Z,0.00
2018-10-19T00:02:53.790Z,0.00
2018-10-19T00:03:54.064Z,0.00
2018-10-19T00:04:54.361Z,0.00
2018-10-19T00:05:54.772Z,0.00
2018-10-19T00:06:55.628Z,0.00
2018-10-19T00:07:56.000Z,0.00
2018-10-19T00:08:55.250Z,0.00
2018-10-19T00:09:55.567Z,0.00
2018-10-19T00:10:57.378Z,0.00
2018-10-19T00:11:57.959Z,0.00
2018-10-19T00:12:58.259Z,0.00
2018-10-19T00:13:58.940Z,0.00
2018-10-19T00:14:59.489Z,0.00
2018-10-19T00:15:58.901Z,0.00
2018-10-19T00:17:00.632Z,0.00
2018-10-19T00:18:00.066Z,0.00
2018-10-19T00:19:01.361Z,0.00
2018-10-19T00:19:10.096Z,0.00
2018-10-19T00:20:11.416Z,0.00
2018-10-19T00:21:12.039Z,0.00
2018-10-19T00:22:11.687Z,0.00
2018-10-19T00:23:11.773Z,0.00
2018-10-19T00:24:12.168Z,0.00
2018-10-19T00:25:13.477Z,0.00
2018-10-19T00:26:13.296Z,0.00
2018-10-19T00:27:15.726Z,0.00
2018-10-19T00:28:14.065Z,0.00
2018-10-19T00:29:15.526Z,0.00
2018-10-19T00:30:15.072Z,0.00
2018-10-19T00:31:16.360Z,0.00
2018-10-19T00:32:17.035Z,0.00
2018-10-19T00:33:16.574Z,0.00
2018-10-19T00:34:17.879Z,0.00
2018-10-19T00:35:18.171Z,0.00
2018-10-19T00:36:18.826Z,0.00
2018-10-19T00:37:19.115Z,0.00
2018-10-19T00:38:19.699Z,0.00
2018-10-19T00:39:20.051Z,0.00
2018-10-19T00:40:20.583Z,0.00
2018-10-19T00:41:19.927Z,0.00
2018-10-19T00:42:21.316Z,0.00
2018-10-19T00:43:21.949Z,0.00
2018-10-19T00:44:22.753Z,0.00
2018-10-19T00:45:23.150Z,0.00
2018-10-19T00:46:23.747Z,0.00
2018-10-19T00:47:24.102Z,0.00
2018-10-19T00:48:24.729Z,0.00
2018-10-19T00:49:25.303Z,0.00
2018-10-19T00:50:25.856Z,0.00
2018-10-19T00:51:26.181Z,0.00
2018-10-19T00:52:26.813Z,0.00
2018-10-19T00:53:27.213Z,0.00
2018-10-19T00:54:27.523Z,0.00
2018-10-19T00:55:28.409Z,0.00
2018-10-19T00:56:28.969Z,0.00
2018-10-19T00:57:29.322Z,0.00
2018-10-19T00:58:29.388Z,0.00
2018-10-19T00:59:29.781Z,0.00
2018-10-19T01:00:30.285Z,0.00
2018-10-19T01:01:30.644Z,0.00
2018-10-19T01:02:31.162Z,0.00
2018-10-19T01:03:31.549Z,0.00
2018-10-19T01:04:31.916Z,0.00
2018-10-19T01:05:32.274Z,0.00
2018-10-19T01:06:32.657Z,0.00
2018-10-19T01:07:33.223Z,0.00
2018-10-19T01:08:33.570Z,0.00
2018-10-19T01:09:33.875Z,0.00
2018-10-19T01:10:34.202Z,0.00
2018-10-19T01:10:44.324Z,0.00
2018-10-19T01:11:45.566Z,0.00
2018-10-19T01:12:45.904Z,0.00
2018-10-19T01:13:46.411Z,0.00
2018-10-19T01:14:46.666Z,0.00
2018-10-19T01:15:46.984Z,0.00
2018-10-19T01:16:47.401Z,0.00
2018-10-19T01:17:47.778Z,0.00
2018-10-19T01:18:48.079Z,0.00
2018-10-19T01:19:48.480Z,0.00
2018-10-19T01:20:47.779Z,0.00
2018-10-19T01:21:49.285Z,0.00
2018-10-19T01:22:49.346Z,0.00
2018-10-19T01:23:49.940Z,0.00
2018-10-19T01:24:50.275Z,0.00
2018-10-19T01:25:50.850Z,0.00
2018-10-19T01:26:50.306Z,0.00
2018-10-19T01:27:52.661Z,0.00
2018-10-19T01:28:51.972Z,0.00
2018-10-19T01:29:52.568Z,0.00
2018-10-19T01:30:53.025Z,0.00
2018-10-19T01:31:53.366Z,0.00
2018-10-19T01:32:53.944Z,0.00
2018-10-19T01:33:54.422Z,0.00
2018-10-19T01:34:54.773Z,0.00
2018-10-19T01:35:54.350Z,0.00
2018-10-19T01:36:55.729Z,0.00
2018-10-19T01:37:56.057Z,0.00
2018-10-19T01:38:56.468Z,0.00
2018-10-19T01:39:55.686Z,0.00
2018-10-19T01:40:57.269Z,0.00
2018-10-19T01:41:56.480Z,0.00
2018-10-19T01:42:57.719Z,0.00
2018-10-19T01:43:58.006Z,0.00
2018-10-19T01:44:58.434Z,0.00
2018-10-19T01:45:58.697Z,0.00
2018-10-19T01:46:59.263Z,0.00
2018-10-19T01:47:58.516Z,0.00
2018-10-19T01:49:00.187Z,0.00
2018-10-19T01:50:00.543Z,0.00
2018-10-19T01:51:00.949Z,0.00
2018-10-19T01:52:00.152Z,0.00
2018-10-19T01:53:01.691Z,0.00
2018-10-19T01:54:01.010Z,0.00
2018-10-19T01:55:02.366Z,0.00
2018-10-19T01:56:02.687Z,0.00
2018-10-19T01:57:03.071Z,0.00
2018-10-19T01:58:02.352Z,0.00
2018-10-19T01:59:03.918Z,0.00
2018-10-19T02:00:03.337Z,0.00
2018-10-19T02:01:04.856Z,0.00
2018-10-19T02:02:05.169Z,0.00
2018-10-19T02:03:05.587Z,0.00
2018-10-19T02:04:04.956Z,0.00
2018-10-19T02:04:13.045Z,0.00
2018-10-19T02:05:14.388Z,0.00
2018-10-19T02:06:13.616Z,0.00
2018-10-19T02:07:14.958Z,0.00
2018-10-19T02:08:15.344Z,0.00
2018-10-19T02:09:15.637Z,0.00
2018-10-19T02:10:16.516Z,0.00
2018-10-19T02:11:16.871Z,0.00
2018-10-19T02:12:17.209Z,0.00
2018-10-19T02:13:17.501Z,0.00
2018-10-19T02:14:17.822Z,0.00
2018-10-19T02:15:18.289Z,0.00
2018-10-19T02:16:17.592Z,0.00
2018-10-19T02:17:18.891Z,0.00
2018-10-19T02:18:19.173Z,0.00
2018-10-19T02:19:19.477Z,0.00
2018-10-19T02:20:19.758Z,0.00
2018-10-19T02:21:20.177Z,0.00
2018-10-19T02:22:20.522Z,0.00
2018-10-19T02:23:20.797Z,0.00
2018-10-19T02:24:21.160Z,0.00
2018-10-19T02:25:21.826Z,0.00
2018-10-19T02:26:22.167Z,0.00
2018-10-19T02:27:22.847Z,0.00
2018-10-19T02:28:23.185Z,0.00
2018-10-19T02:29:23.549Z,0.00
2018-10-19T02:30:23.891Z,0.00
2018-10-19T02:31:24.439Z,0.00
2018-10-19T02:32:25.010Z,0.00
2018-10-19T02:33:25.348Z,0.00
2018-10-19T02:34:25.640Z,0.00
2018-10-19T02:35:26.006Z,0.00
2018-10-19T02:36:27.510Z,0.00
2018-10-19T02:37:26.775Z,0.00
2018-10-19T02:38:27.372Z,0.00
2018-10-19T02:39:27.830Z,0.00
2018-10-19T02:40:28.245Z,0.00
2018-10-19T02:41:28.868Z,0.00
2018-10-19T02:42:29.262Z,0.00
2018-10-19T02:43:29.680Z,0.00
2018-10-19T02:44:30.030Z,0.00
2018-10-19T02:45:30.324Z,0.00
2018-10-19T02:46:30.722Z,0.00
2018-10-19T02:47:31.208Z,0.00
2018-10-19T02:48:31.518Z,0.00
2018-10-19T02:49:31.975Z,0.00
2018-10-19T02:50:32.313Z,0.00
2018-10-19T02:50:41.197Z,0.00
2018-10-19T02:51:41.795Z,0.00
2018-10-19T02:52:42.093Z,0.00
2018-10-19T02:53:42.364Z,0.00
2018-10-19T02:54:42.683Z,0.00
2018-10-19T02:55:43.079Z,0.00
2018-10-19T02:56:43.640Z,0.00
2018-10-19T02:57:43.968Z,0.00
2018-10-19T02:58:44.232Z,0.00
2018-10-19T02:59:44.708Z,0.00
2018-10-19T03:00:45.060Z,0.00
2018-10-19T03:01:45.579Z,0.00
2018-10-19T03:02:45.851Z,0.00
2018-10-19T03:03:46.315Z,0.00
2018-10-19T03:04:46.831Z,0.00
2018-10-19T03:05:47.366Z,0.00
2018-10-19T03:06:47.842Z,0.00
2018-10-19T03:07:48.283Z,0.00
2018-10-19T03:08:48.738Z,0.00
2018-10-19T03:09:49.097Z,0.00
2018-10-19T03:10:49.648Z,0.00
2018-10-19T03:11:48.906Z,0.00
2018-10-19T03:12:50.221Z,0.00
2018-10-19T03:13:50.638Z,0.00
2018-10-19T03:14:51.031Z,0.00
2018-10-19T03:15:51.466Z,0.00
2018-10-19T03:16:52.077Z,0.00
2018-10-19T03:17:51.382Z,0.00
2018-10-19T03:18:53.154Z,0.00
2018-10-19T03:19:53.778Z,0.00
2018-10-19T03:20:54.393Z,0.00
2018-10-19T03:21:53.737Z,0.00
2018-10-19T03:22:55.168Z,0.00
2018-10-19T03:23:55.677Z,0.00
2018-10-19T03:24:56.033Z,0.00
2018-10-19T03:25:56.484Z,0.00
2018-10-19T03:26:56.866Z,0.00
2018-10-19T03:27:57.434Z,0.00
2018-10-19T03:28:57.995Z,0.00
2018-10-19T03:29:57.768Z,0.00
2018-10-19T03:30:59.196Z,0.00
2018-10-19T03:31:58.425Z,0.00
2018-10-19T03:32:59.946Z,0.00
2018-10-19T03:33:59.215Z,0.00
2018-10-19T03:35:00.580Z,0.00
2018-10-19T03:35:59.894Z,0.00
2018-10-19T03:37:01.602Z,0.00
2018-10-19T03:38:02.013Z,0.00
2018-10-19T03:39:02.377Z,0.00
2018-10-19T03:40:01.961Z,0.00
2018-10-19T03:41:03.314Z,0.00
2018-10-19T03:42:03.649Z,0.00
2018-10-19T03:42:16.777Z,0.00
2018-10-19T03:43:15.075Z,0.00
2018-10-19T03:44:15.419Z,0.00
2018-10-19T03:45:15.851Z,0.00
2018-10-19T03:46:15.096Z,0.00
2018-10-19T03:47:16.812Z,0.00
2018-10-19T03:48:16.187Z,0.00
2018-10-19T03:49:17.457Z,0.00
2018-10-19T03:50:16.719Z,0.00
2018-10-19T03:51:18.101Z,0.00
2018-10-19T03:52:17.294Z,0.00
2018-10-19T03:53:18.762Z,0.00
2018-10-19T03:54:18.033Z,0.00
2018-10-19T03:55:19.305Z,0.00
2018-10-19T03:56:19.991Z,0.00
2018-10-19T03:57:20.417Z,0.00
2018-10-19T03:58:20.801Z,0.00
2018-10-19T03:59:21.254Z,0.00
2018-10-19T04:00:21.532Z,0.00
2018-10-19T04:01:22.321Z,0.00
2018-10-19T04:02:22.602Z,0.00
2018-10-19T04:03:22.983Z,0.00
2018-10-19T04:04:22.389Z,0.00
2018-10-19T04:05:23.883Z,0.00
2018-10-19T04:06:24.181Z,0.00
2018-10-19T04:07:24.573Z,0.00
2018-10-19T04:08:24.932Z,0.00
2018-10-19T04:09:25.292Z,0.00
2018-10-19T04:10:25.685Z,0.00
2018-10-19T04:11:26.181Z,0.00
2018-10-19T04:12:26.521Z,0.00
2018-10-19T04:13:27.350Z,0.00
2018-10-19T04:14:27.880Z,0.00
2018-10-19T04:15:28.239Z,0.00
2018-10-19T04:16:28.537Z,0.00
2018-10-19T04:17:28.892Z,0.00
2018-10-19T04:18:29.157Z,0.00
2018-10-19T04:19:29.523Z,0.00
2018-10-19T04:20:31.046Z,0.00
2018-10-19T04:21:30.515Z,0.00
2018-10-19T04:22:33.649Z,0.00
2018-10-19T04:23:31.266Z,0.00
2018-10-19T04:24:31.630Z,0.00
2018-10-19T04:25:32.135Z,0.00
2018-10-19T04:26:32.413Z,0.00
2018-10-19T04:27:33.084Z,0.00
2018-10-19T04:28:32.306Z,0.00
2018-10-19T04:29:33.720Z,0.00
2018-10-19T04:30:34.031Z,0.00
2018-10-19T04:30:43.066Z,0.00
2018-10-19T04:31:43.292Z,0.00
2018-10-19T04:32:43.610Z,0.00
2018-10-19T04:33:43.994Z,0.00
2018-10-19T04:34:44.335Z,0.00
2018-10-19T04:35:44.600Z,0.00
2018-10-19T04:36:45.093Z,0.00
2018-10-19T04:37:45.562Z,0.00
2018-10-19T04:38:45.896Z,0.00
2018-10-19T04:39:47.253Z,0.00
2018-10-19T04:40:46.556Z,0.76
2018-10-19T04:41:47.302Z,0.00
2018-10-19T04:42:46.508Z,0.00
2018-10-19T04:43:47.909Z,0.00
2018-10-19T04:44:48.184Z,0.00
2018-10-19T04:45:48.496Z,0.00
2018-10-19T04:46:48.788Z,0.00
2018-10-19T04:47:49.300Z,0.00
2018-10-19T04:48:48.405Z,0.00
2018-10-19T04:49:49.700Z,0.00
2018-10-19T04:50:50.035Z,0.00
2018-10-19T04:51:50.416Z,0.00
2018-10-19T04:52:50.900Z,0.00
2018-10-19T04:53:51.251Z,0.00
2018-10-19T04:54:50.477Z,0.00
2018-10-19T04:55:51.906Z,0.00
2018-10-19T04:56:52.248Z,0.00
2018-10-19T04:57:52.750Z,0.00
2018-10-19T04:58:53.077Z,0.00
2018-10-19T04:59:53.417Z,0.00
2018-10-19T05:00:53.959Z,0.00
2018-10-19T05:01:54.214Z,0.00
2018-10-19T05:02:54.861Z,0.00
2018-10-19T05:03:54.428Z,0.00
2018-10-19T05:04:55.774Z,0.05
2018-10-19T05:05:56.101Z,0.05
2018-10-19T05:06:55.424Z,0.05
2018-10-19T05:07:56.970Z,0.05
2018-10-19T05:08:56.210Z,0.05
2018-10-19T05:09:57.487Z,0.05
2018-10-19T05:10:57.835Z,0.05
2018-10-19T05:11:57.210Z,0.05
2018-10-19T05:12:58.913Z,0.09
2018-10-19T05:13:58.182Z,0.14
2018-10-19T05:14:58.536Z,0.18
2018-10-19T05:15:59.782Z,0.18
2018-10-19T05:17:00.182Z,0.22
2018-10-19T05:17:59.619Z,0.22
2018-10-19T05:19:00.973Z,0.27
2018-10-19T05:20:01.358Z,0.41
2018-10-19T05:21:01.910Z,0.41
2018-10-19T05:22:02.452Z,0.54
2018-10-19T05:22:11.168Z,0.54
2018-10-19T05:23:11.604Z,0.63
2018-10-19T05:24:11.308Z,0.81
2018-10-19T05:25:12.608Z,1.03
2018-10-19T05:26:12.942Z,1.22
2018-10-19T05:27:12.457Z,1.49
2018-10-19T05:28:12.939Z,1.80
2018-10-19T05:29:13.693Z,2.12
2018-10-19T05:30:13.959Z,2.57
2018-10-19T05:31:15.618Z,3.15
2018-10-19T05:32:16.034Z,3.78
2018-10-19T05:33:15.212Z,4.55
2018-10-19T05:34:16.552Z,5.58
2018-10-19T05:35:16.957Z,6.97
2018-10-19T05:36:16.530Z,8.69
2018-10-19T05:37:18.459Z,10.40
2018-10-19T05:38:19.919Z,12.33
2018-10-19T05:39:19.560Z,14.67
2018-10-19T05:40:19.923Z,16.92
2018-10-19T05:41:20.505Z,19.62
2018-10-19T05:42:20.902Z,23.04
2018-10-19T05:43:21.447Z,26.82
2018-10-19T05:44:21.746Z,30.78
2018-10-19T05:45:22.071Z,35.10
2018-10-19T05:46:22.495Z,39.42
2018-10-19T05:47:22.826Z,43.92
2018-10-19T05:48:23.510Z,49.32
2018-10-19T05:49:23.821Z,54.36
2018-10-19T05:50:24.152Z,60.12
2018-10-19T05:51:24.548Z,67.32
2018-10-19T05:52:25.112Z,75.24
2018-10-19T05:53:25.399Z,83.88
2018-10-19T05:54:25.718Z,92.16
2018-10-19T05:55:26.241Z,100.80
2018-10-19T05:56:26.579Z,108.72
2018-10-19T05:57:27.251Z,115.92
2018-10-19T05:58:27.578Z,123.84
2018-10-19T05:59:27.906Z,132.48
2018-10-19T06:00:28.266Z,143.28
2018-10-19T06:01:28.612Z,154.80
2018-10-19T06:02:29.101Z,167.04
2018-10-19T06:03:28.539Z,180.00
2018-10-19T06:04:30.026Z,192.96
2018-10-19T06:05:30.585Z,207.36
2018-10-19T06:06:30.978Z,221.76
2018-10-19T06:07:31.327Z,239.04
2018-10-19T06:08:31.775Z,254.88
2018-10-19T06:09:32.093Z,273.60
2018-10-19T06:10:32.471Z,296.64
2018-10-19T06:11:32.836Z,321.12
2018-10-19T06:12:33.119Z,349.92
2018-10-19T06:13:33.511Z,377.28
2018-10-19T06:14:32.753Z,411.84
2018-10-19T06:14:41.447Z,414.72
2018-10-19T06:15:42.705Z,449.28
2018-10-19T06:16:43.027Z,478.08
2018-10-19T06:17:43.180Z,512.64
2018-10-19T06:18:43.627Z,541.44
2018-10-19T06:19:44.163Z,576.00
2018-10-19T06:20:44.767Z,610.56
2018-10-19T06:21:45.180Z,642.24
2018-10-19T06:22:45.506Z,662.40
2018-10-19T06:23:46.189Z,696.96
2018-10-19T06:24:46.552Z,748.80
2018-10-19T06:25:47.179Z,806.40
2018-10-19T06:26:46.582Z,840.96
2018-10-19T06:27:48.015Z,864.00
2018-10-19T06:28:48.423Z,875.52
2018-10-19T06:29:48.869Z,864.00
2018-10-19T06:30:49.186Z,852.48
2018-10-19T06:31:49.524Z,858.24
2018-10-19T06:32:49.956Z,881.28
2018-10-19T06:33:50.567Z,915.84
2018-10-19T06:34:50.074Z,973.44
2018-10-19T06:35:51.411Z,1088.64
2018-10-19T06:36:52.019Z,1123.20
2018-10-19T06:37:52.476Z,1128.96
2018-10-19T06:38:52.838Z,1134.72
2018-10-19T06:39:53.209Z,1169.28
2018-10-19T06:40:53.862Z,1255.68
2018-10-19T06:41:53.102Z,1330.56
2018-10-19T06:42:54.646Z,1365.12
2018-10-19T06:43:55.197Z,1347.84
2018-10-19T06:44:55.498Z,1319.04
2018-10-19T06:45:56.139Z,1330.56
2018-10-19T06:46:56.916Z,1382.40
2018-10-19T06:47:57.206Z,1451.52
2018-10-19T06:48:57.603Z,1486.08
2018-10-19T06:49:57.038Z,253.44
2018-10-19T06:50:58.347Z,1370.88
2018-10-19T06:51:58.673Z,1330.56
2018-10-19T06:52:59.026Z,1365.12
2018-10-19T06:53:58.250Z,1440.00
2018-10-19T06:54:59.593Z,1486.08
2018-10-19T06:55:59.932Z,1566.72
2018-10-19T06:56:59.533Z,1693.44
2018-10-19T06:58:01.064Z,1797.12
2018-10-19T06:59:01.554Z,1843.20
2018-10-19T07:00:00.824Z,1900.80
2018-10-19T07:01:02.179Z,1992.96
2018-10-19T07:02:01.613Z,2050.56
2018-10-19T07:03:01.891Z,2016.00
2018-10-19T07:04:03.180Z,1981.44
2018-10-19T07:05:03.619Z,2039.04
2018-10-19T07:06:02.954Z,2119.68
2018-10-19T07:07:03.241Z,2142.72
2018-10-19T07:07:11.831Z,2131.20
2018-10-19T07:08:13.260Z,2119.68
2018-10-19T07:09:12.504Z,2177.28
2018-10-19T07:10:13.867Z,2304.00
2018-10-19T07:11:14.289Z,2384.64
2018-10-19T07:12:13.645Z,2430.72
2018-10-19T07:13:13.820Z,2511.36
2018-10-19T07:14:15.250Z,2580.48
2018-10-19T07:15:14.502Z,2522.88
2018-10-19T07:16:15.828Z,2419.20
2018-10-19T07:17:16.308Z,2430.72
2018-10-19T07:18:15.581Z,2592.00
2018-10-19T07:19:16.881Z,2822.40
2018-10-19T07:20:17.275Z,3041.28
2018-10-19T07:21:17.577Z,3202.56
2018-10-19T07:22:17.830Z,3317.76
2018-10-19T07:23:18.115Z,3432.96
2018-10-19T07:24:18.408Z,3525.12
2018-10-19T07:25:18.826Z,3709.44
2018-10-19T07:26:19.159Z,4032.00
2018-10-19T07:27:19.525Z,4170.24
2018-10-19T07:28:19.778Z,3962.88
2018-10-19T07:29:20.351Z,3709.44
2018-10-19T07:30:20.784Z,3617.28
2018-10-19T07:31:21.203Z,3755.52
2018-10-19T07:32:21.543Z,4032.00
2018-10-19T07:33:21.830Z,4285.44
2018-10-19T07:34:22.365Z,4354.56
2018-10-19T07:35:22.698Z,4239.36
2018-10-19T07:36:23.193Z,4078.08
2018-10-19T07:37:22.502Z,4147.20
2018-10-19T07:38:23.855Z,4377.60
2018-10-19T07:39:24.245Z,4700.16
2018-10-19T07:40:24.548Z,5022.72
2018-10-19T07:41:24.926Z,5322.24
2018-10-19T07:42:25.486Z,5506.56
2018-10-19T07:43:24.793Z,5598.72
2018-10-19T07:44:26.415Z,5667.84
2018-10-19T07:45:26.863Z,5621.76
2018-10-19T07:46:27.223Z,5552.64
2018-10-19T07:47:27.633Z,5621.76
2018-10-19T07:48:26.955Z,5852.16
2018-10-19T07:49:27.593Z,6082.56
2018-10-19T07:50:30.184Z,6497.28
2018-10-19T07:51:29.928Z,6865.92
2018-10-19T07:52:30.423Z,7096.32
2018-10-19T07:53:30.810Z,7326.72
2018-10-19T07:54:31.224Z,7464.96
2018-10-19T07:55:30.544Z,7649.28
2018-10-19T07:56:31.808Z,7879.68
2018-10-19T07:57:32.511Z,8202.24
2018-10-19T07:58:32.892Z,8386.56
2018-10-19T07:59:33.694Z,8432.64
2018-10-19T07:59:42.825Z,8432.64
2018-10-19T08:00:43.138Z,8294.40
2018-10-19T08:01:42.413Z,7833.60
2018-10-19T08:02:43.748Z,7188.48
2018-10-19T08:03:44.020Z,6497.28
2018-10-19T08:04:44.396Z,5944.32
2018-10-19T08:05:44.833Z,5667.84
2018-10-19T08:06:45.629Z,5529.60
2018-10-19T08:07:46.133Z,5529.60
2018-10-19T08:08:46.524Z,5713.92
2018-10-19T08:09:46.582Z,5990.40
2018-10-19T08:10:46.792Z,6220.80
2018-10-19T08:11:46.111Z,6220.80
2018-10-19T08:12:47.681Z,5990.40
2018-10-19T08:13:48.222Z,5736.96
2018-10-19T08:14:48.477Z,5506.56
2018-10-19T08:15:48.764Z,5414.40
2018-10-19T08:16:49.127Z,5437.44
2018-10-19T08:17:50.051Z,5460.48
2018-10-19T08:18:50.317Z,5437.44
2018-10-19T08:19:51.325Z,5506.56
2018-10-19T08:20:51.607Z,5667.84
2018-10-19T08:21:52.234Z,5944.32
2018-10-19T08:22:52.581Z,5898.24
2018-10-19T08:23:52.883Z,5483.52
2018-10-19T08:24:53.155Z,5184.00
2018-10-19T08:25:53.520Z,5253.12
2018-10-19T08:26:53.824Z,5575.68
2018-10-19T08:27:54.198Z,6036.48
2018-10-19T08:28:54.659Z,6497.28
2018-10-19T08:29:55.014Z,6773.76
2018-10-19T08:30:55.311Z,6635.52
2018-10-19T08:31:55.535Z,6451.20
2018-10-19T08:32:54.853Z,6589.44
2018-10-19T08:33:56.355Z,7234.56
2018-10-19T08:34:56.677Z,8156.16
2018-10-19T08:35:57.267Z,9169.92
2018-10-19T08:36:59.009Z,9953.28
2018-10-19T08:37:57.645Z,10414.08
2018-10-19T08:38:59.206Z,10690.56
2018-10-19T08:40:09.408Z,10690.56
2018-10-19T08:40:59.895Z,10552.32
2018-10-19T08:41:59.645Z,10414.08
2018-10-19T08:43:00.904Z,10414.08
2018-10-19T08:44:00.152Z,10506.24
2018-10-19T08:45:02.089Z,10506.24
2018-10-19T08:46:01.731Z,10414.08
2018-10-19T08:47:02.110Z,10091.52
2018-10-19T08:48:02.402Z,9815.04
2018-10-19T08:48:11.344Z,9815.04
2018-10-19T08:49:14.840Z,9722.88
2018-10-19T08:50:11.958Z,9768.96
2018-10-19T08:51:13.434Z,9907.20
2018-10-19T08:52:12.888Z,9953.28
2018-10-19T08:53:14.349Z,9907.20
2018-10-19T08:54:13.564Z,9768.96
2018-10-19T08:55:14.929Z,9676.80
2018-10-19T08:56:14.220Z,9815.04
2018-10-19T08:57:15.554Z,10183.68
2018-10-19T08:58:14.920Z,10644.48
2018-10-19T08:59:18.443Z,10967.04
2018-10-19T09:00:16.767Z,11105.28
2018-10-19T09:01:16.294Z,11105.28
2018-10-19T09:02:17.752Z,11335.68
2018-10-19T09:03:18.102Z,11658.24
2018-10-19T09:04:22.389Z,12902.40
2018-10-19T09:05:18.846Z,14653.44
2018-10-19T09:06:17.772Z,15114.24
2018-10-19T09:07:19.204Z,14837.76
2018-10-19T09:08:19.777Z,15390.72
2018-10-19T09:09:20.443Z,14653.44
2018-10-19T09:10:20.701Z,14008.32
2018-10-19T09:11:21.126Z,13916.16
2018-10-19T09:12:23.487Z,14192.64
2018-10-19T09:13:20.654Z,15667.20
2018-10-19T09:14:22.026Z,16220.16
2018-10-19T09:15:23.006Z,15206.40
2018-10-19T09:16:22.277Z,14929.92
2018-10-19T09:17:23.643Z,14008.32
2018-10-19T09:18:23.891Z,13363.20
2018-10-19T09:19:23.263Z,13916.16
2018-10-19T09:20:27.644Z,13547.52
2018-10-19T09:21:24.953Z,13271.04
2018-10-19T09:22:25.257Z,13271.04
2018-10-19T09:23:25.909Z,15022.08
2018-10-19T09:24:25.956Z,14653.44
2018-10-19T09:25:26.434Z,13547.52
2018-10-19T09:26:26.931Z,13824.00
2018-10-19T09:27:27.048Z,14284.80
2018-10-19T09:28:27.317Z,14837.76
2018-10-19T09:29:27.742Z,14192.64
2018-10-19T09:30:27.389Z,14008.32
2018-10-19T09:31:28.762Z,13639.68
2018-10-19T09:32:29.597Z,13916.16
2018-10-19T09:33:28.892Z,14745.60
2018-10-19T09:34:30.423Z,15575.04
2018-10-19T09:35:30.937Z,15943.68
2018-10-19T09:36:30.450Z,16312.32
2018-10-19T09:37:30.471Z,16680.96
2018-10-19T09:38:31.898Z,16773.12
2018-10-19T09:39:32.239Z,17141.76
2018-10-19T09:40:32.568Z,17418.24
2018-10-19T09:41:34.234Z,17326.08
2018-10-19T09:42:52.085Z,17694.72
2018-10-19T09:43:32.997Z,17879.04
2018-10-19T09:44:16.503Z,17879.04
2018-10-19T09:45:15.050Z,17971.20
2018-10-19T09:46:12.029Z,17971.20
2018-10-19T09:47:13.809Z,17971.20
2018-10-19T09:48:13.335Z,18063.36
2018-10-19T09:49:13.669Z,18155.52
2018-10-19T09:50:13.977Z,18339.84
2018-10-19T09:51:15.462Z,17971.20
2018-10-19T09:52:14.393Z,17418.24
2018-10-19T09:53:15.804Z,17141.76
2018-10-19T09:54:15.198Z,17141.76
2018-10-19T09:55:15.775Z,17879.04
2018-10-19T09:56:16.167Z,17694.72
2018-10-19T09:57:16.595Z,16865.28
2018-10-19T09:58:16.997Z,15943.68
2018-10-19T09:59:18.341Z,15575.04
2018-10-19T10:00:17.647Z,16404.48
2018-10-19T10:01:19.071Z,15575.04
2018-10-19T10:02:19.643Z,14837.76
2018-10-19T10:03:19.998Z,14376.96
2018-10-19T10:06:03.080Z,17602.56
2018-10-19T10:06:59.317Z,19261.44
2018-10-19T10:07:59.686Z,19077.12
2018-10-19T10:08:59.945Z,17786.88
2018-10-19T10:10:00.249Z,17326.08
2018-10-19T10:11:01.660Z,17326.08
2018-10-19T10:12:00.992Z,18432.00
2018-10-19T10:13:02.495Z,18708.48
2018-10-19T10:14:01.859Z,18892.80
2018-10-19T10:15:03.280Z,20367.36
2018-10-19T10:16:02.512Z,20643.84
2018-10-19T10:17:04.469Z,19906.56
2018-10-19T10:18:03.676Z,18892.80
2018-10-19T10:19:05.101Z,19077.12
2018-10-19T10:20:04.330Z,19814.40
2018-10-19T10:21:05.771Z,21196.80
2018-10-19T10:22:06.214Z,22302.72
2018-10-19T10:23:05.543Z,22947.84
2018-10-19T10:24:06.820Z,23777.28
2018-10-19T10:25:07.117Z,24883.20
2018-10-19T10:26:07.489Z,25251.84
2018-10-19T10:27:07.778Z,25251.84
2018-10-19T10:28:08.623Z,26726.40
2018-10-19T10:29:10.587Z,27279.36
2018-10-19T10:30:08.404Z,27463.68
2018-10-19T10:31:09.777Z,27463.68
2018-10-19T10:32:09.144Z,26910.72
2018-10-19T10:33:09.797Z,26173.44
2018-10-19T10:34:11.410Z,26173.44
2018-10-19T10:35:10.631Z,26357.76
2018-10-19T10:36:11.937Z,26910.72
2018-10-19T10:37:12.413Z,27095.04
2018-10-19T10:38:11.813Z,27463.68
2018-10-19T10:39:13.245Z,27279.36
2018-10-19T10:40:12.708Z,27279.36
2018-10-19T10:41:13.082Z,27463.68
2018-10-19T10:42:14.370Z,26173.44
2018-10-19T10:43:14.762Z,24514.56
2018-10-19T10:44:14.014Z,23777.28
2018-10-19T10:45:15.459Z,23040.00
2018-10-19T10:46:15.867Z,22579.20
2018-10-19T10:47:14.984Z,21104.64
2018-10-19T10:48:16.297Z,19998.72
2018-10-19T10:49:16.888Z,19261.44
2018-10-19T10:50:16.442Z,16957.44
2018-10-19T10:51:17.871Z,17049.60
2018-10-19T10:52:18.160Z,16220.16
2018-10-19T10:53:18.872Z,16588.80
2018-10-19T10:54:19.730Z,18155.52
2018-10-19T10:55:51.154Z,21288.96
2018-10-19T10:56:52.372Z,18432.00
2018-10-19T10:57:51.669Z,22302.72
2018-10-19T10:58:51.883Z,24330.24
2018-10-19T10:59:52.378Z,24330.24
2018-10-19T11:00:52.700Z,20459.52
2018-10-19T11:01:53.025Z,22487.04
2018-10-19T11:02:53.917Z,15667.20
2018-10-19T11:03:54.525Z,20459.52
2018-10-19T11:04:55.085Z,19998.72
2018-10-19T11:05:55.758Z,21381.12
2018-10-19T11:06:56.326Z,23132.16
2018-10-19T11:07:55.708Z,20275.20
2018-10-19T11:08:57.330Z,23408.64
2018-10-19T11:09:57.794Z,21196.80
2018-10-19T11:10:57.174Z,22210.56
2018-10-19T11:11:58.408Z,25436.16
2018-10-19T11:12:58.857Z,24883.20
2018-10-19T11:14:01.070Z,22210.56
2018-10-19T11:14:59.460Z,22763.52
2018-10-19T11:15:59.844Z,23500.80
2018-10-19T11:16:59.571Z,22026.24
2018-10-19T11:18:00.858Z,22302.72
2018-10-19T11:19:01.195Z,18984.96
2018-10-19T11:20:01.743Z,18800.64
2018-10-19T11:21:02.029Z,25067.52
2018-10-19T11:22:02.754Z,27279.36
2018-10-19T11:23:01.950Z,25989.12
2018-10-19T11:24:02.382Z,24145.92
2018-10-19T11:25:02.695Z,20275.20
2018-10-19T11:26:02.962Z,19077.12
2018-10-19T11:27:04.397Z,15575.04
2018-10-19T11:28:05.068Z,17694.72
2018-10-19T11:29:04.328Z,18800.64
2018-10-19T11:30:05.591Z,16588.80
2018-10-19T11:31:06.575Z,15114.24
2018-10-19T11:32:04.990Z,14929.92
2018-10-19T11:33:06.489Z,13086.72
2018-10-19T11:34:15.995Z,12718.08
2018-10-19T11:35:06.309Z,12902.40
2018-10-19T11:36:06.548Z,13916.16
2018-10-19T11:37:07.894Z,13916.16
2018-10-19T11:38:07.600Z,14929.92
2018-10-19T11:39:07.996Z,15114.24
2018-10-19T11:40:09.497Z,15390.72
2018-10-19T11:41:08.931Z,15206.40
2018-10-19T11:42:10.358Z,16035.84
2018-10-19T11:43:10.265Z,15390.72
2018-10-19T11:44:10.406Z,17049.60
2018-10-19T11:45:11.788Z,20275.20
2018-10-19T11:46:12.855Z,19445.76
2018-10-19T11:47:12.022Z,19353.60
2018-10-19T11:48:13.725Z,24514.56
2018-10-19T11:49:14.310Z,26357.76
2018-10-19T11:50:13.581Z,25251.84
2018-10-19T11:51:14.927Z,23961.60
2018-10-19T11:52:15.281Z,24330.24
2018-10-19T11:53:15.741Z,23777.28
2018-10-19T11:54:16.029Z,23592.96
2018-10-19T11:55:16.540Z,22210.56
2018-10-19T11:55:25.423Z,22210.56
2018-10-19T11:56:26.268Z,22763.52
2018-10-19T11:57:26.628Z,24883.20
2018-10-19T11:58:27.068Z,16128.00
2018-10-19T11:59:27.293Z,26173.44
2018-10-19T12:00:27.873Z,24883.20
2018-10-19T12:01:28.224Z,24514.56
2018-10-19T12:02:28.594Z,17786.88
2018-10-19T12:03:28.918Z,23040.00
2018-10-19T12:04:28.265Z,21104.64
2018-10-19T12:05:29.484Z,18063.36
2018-10-19T12:06:30.130Z,16220.16
2018-10-19T12:07:30.582Z,14929.92
2018-10-19T12:08:30.282Z,14008.32
2018-10-19T12:09:31.756Z,15575.04
2018-10-19T12:10:32.308Z,15206.40
2018-10-19T12:11:32.722Z,14745.60
2018-10-19T12:12:36.045Z,11520.00
2018-10-19T12:13:34.066Z,14008.32
2018-10-19T12:14:33.744Z,15298.56
2018-10-19T12:15:35.006Z,14284.80
2018-10-19T12:16:35.646Z,11289.60
2018-10-19T12:17:34.836Z,10460.16
2018-10-19T12:18:36.288Z,10414.08
2018-10-19T12:19:39.284Z,10460.16
2018-10-19T12:20:36.212Z,11335.68
2018-10-19T12:21:37.578Z,11980.80
2018-10-19T12:22:37.836Z,13271.04
2018-10-19T12:23:38.082Z,14008.32
2018-10-19T12:24:38.487Z,15482.88
2018-10-19T12:25:39.053Z,15943.68
2018-10-19T12:26:39.520Z,15298.56
2018-10-19T12:27:39.838Z,15943.68
2018-10-19T12:28:40.347Z,17879.04
2018-10-19T12:29:40.708Z,16957.44